sensor_id;sensor_type;location;lat;lon;timestamp;P1;durP1;ratioP1;P2;durP2;ratioP2
72573;SDS011;60603;52.548;13.420;2022-10-31T00:01:01;52.17;;;29.23;;
72573;SDS011;60603;52.548;13.420;2022-10-31T00:03:38;51.00;;;28.65;;
72573;SDS011;60603;52.548;13.420;2022-10-31T00:06:03;54.83;;;29.35;;
72573;SDS011;60603;52.548;13.420;2022-10-31T00:08:29;51.53;;;29.48;;
72573;SDS011;60603;52.548;13.420;2022-10-31T00:10:54;61.90;;;31.98;;
72573;SDS011;60603;52.548;13.420;2022-10-31T00:13:20;64.65;;;31.45;;
72573;SDS011;60603;52.548;13.420;2022-10-31T00:15:46;59.03;;;32.70;;
72573;SDS011;60603;52.548;13.420;2022-10-31T00:18:11;54.22;;;30.20;;
72573;SDS011;60603;52.548;13.420;2022-10-31T00:20:37;60.40;;;30.63;;
72573;SDS011;60603;52.548;13.420;2022-10-31T00:23:04;52.85;;;31.02;;
72573;SDS011;60603;52.548;13.420;2022-10-31T00:25:32;58.22;;;29.85;;
72573;SDS011;60603;52.548;13.420;2022-10-31T00:27:59;56.00;;;29.65;;
72573;SDS011;60603;52.548;13.420;2022-10-31T00:30:25;56.40;;;29.55;;
72573;SDS011;60603;52.548;13.420;2022-10-31T00:32:51;56.78;;;31.48;;
72573;SDS011;60603;52.548;13.420;2022-10-31T00:35:16;57.05;;;30.50;;
72573;SDS011;60603;52.548;13.420;2022-10-31T00:37:42;60.50;;;32.33;;
72573;SDS011;60603;52.548;13.420;2022-10-31T00:40:08;55.78;;;29.30;;
72573;SDS011;60603;52.548;13.420;2022-10-31T00:42:34;61.10;;;31.27;;
72573;SDS011;60603;52.548;13.420;2022-10-31T00:44:59;64.00;;;32.53;;
72573;SDS011;60603;52.548;13.420;2022-10-31T00:47:25;63.35;;;31.60;;
72573;SDS011;60603;52.548;13.420;2022-10-31T00:49:50;60.15;;;31.45;;
72573;SDS011;60603;52.548;13.420;2022-10-31T00:52:16;54.70;;;30.15;;
72573;SDS011;60603;52.548;13.420;2022-10-31T00:54:42;57.90;;;29.58;;
72573;SDS011;60603;52.548;13.420;2022-10-31T00:57:07;51.78;;;28.08;;
72573;SDS011;60603;52.548;13.420;2022-10-31T00:59:33;54.80;;;30.70;;
72573;SDS011;60603;52.548;13.420;2022-10-31T01:01:59;58.47;;;27.90;;
72573;SDS011;60603;52.548;13.420;2022-10-31T01:04:24;63.60;;;30.63;;
72573;SDS011;60603;52.548;13.420;2022-10-31T01:06:50;51.80;;;29.40;;
72573;SDS011;60603;52.548;13.420;2022-10-31T01:09:16;49.00;;;26.40;;
72573;SDS011;60603;52.548;13.420;2022-10-31T01:11:41;55.30;;;29.48;;
72573;SDS011;60603;52.548;13.420;2022-10-31T01:14:07;52.08;;;27.60;;
72573;SDS011;60603;52.548;13.420;2022-10-31T01:16:33;49.15;;;26.15;;
72573;SDS011;60603;52.548;13.420;2022-10-31T01:18:59;52.80;;;26.30;;
72573;SDS011;60603;52.548;13.420;2022-10-31T01:21:26;48.97;;;27.23;;
72573;SDS011;60603;52.548;13.420;2022-10-31T01:23:53;48.63;;;24.55;;
72573;SDS011;60603;52.548;13.420;2022-10-31T01:26:21;48.83;;;23.23;;
72573;SDS011;60603;52.548;13.420;2022-10-31T01:28:52;50.30;;;25.52;;
72573;SDS011;60603;52.548;13.420;2022-10-31T01:31:24;46.88;;;23.52;;
72573;SDS011;60603;52.548;13.420;2022-10-31T01:33:52;47.35;;;24.80;;
72573;SDS011;60603;52.548;13.420;2022-10-31T01:36:27;43.90;;;24.75;;
72573;SDS011;60603;52.548;13.420;2022-10-31T01:38:56;48.08;;;23.73;;
72573;SDS011;60603;52.548;13.420;2022-10-31T01:41:25;42.90;;;22.05;;
72573;SDS011;60603;52.548;13.420;2022-10-31T01:43:59;46.50;;;24.20;;
72573;SDS011;60603;52.548;13.420;2022-10-31T01:48:59;44.50;;;23.98;;
72573;SDS011;60603;52.548;13.420;2022-10-31T01:51:27;41.95;;;22.73;;
72573;SDS011;60603;52.548;13.420;2022-10-31T01:53:55;42.30;;;23.15;;
72573;SDS011;60603;52.548;13.420;2022-10-31T01:56:23;42.65;;;23.70;;
72573;SDS011;60603;52.548;13.420;2022-10-31T01:58:49;41.42;;;22.63;;
72573;SDS011;60603;52.548;13.420;2022-10-31T02:01:15;45.03;;;22.17;;
72573;SDS011;60603;52.548;13.420;2022-10-31T02:03:42;42.25;;;21.65;;
72573;SDS011;60603;52.548;13.420;2022-10-31T02:06:09;44.80;;;23.35;;
72573;SDS011;60603;52.548;13.420;2022-10-31T02:08:39;39.25;;;23.20;;
72573;SDS011;60603;52.548;13.420;2022-10-31T02:11:05;39.10;;;22.00;;
72573;SDS011;60603;52.548;13.420;2022-10-31T02:13:32;49.88;;;21.42;;
72573;SDS011;60603;52.548;13.420;2022-10-31T02:15:59;38.97;;;21.77;;
72573;SDS011;60603;52.548;13.420;2022-10-31T02:18:26;38.00;;;19.88;;
72573;SDS011;60603;52.548;13.420;2022-10-31T02:32:00;41.42;;;21.40;;
72573;SDS011;60603;52.548;13.420;2022-10-31T02:34:48;41.53;;;19.90;;
72573;SDS011;60603;52.548;13.420;2022-10-31T02:37:29;41.78;;;21.33;;
72573;SDS011;60603;52.548;13.420;2022-10-31T02:40:04;39.35;;;20.38;;
72573;SDS011;60603;52.548;13.420;2022-10-31T02:45:38;37.47;;;19.80;;
72573;SDS011;60603;52.548;13.420;2022-10-31T02:48:14;44.20;;;21.10;;
72573;SDS011;60603;52.548;13.420;2022-10-31T02:50:54;37.72;;;18.92;;
72573;SDS011;60603;52.548;13.420;2022-10-31T02:53:22;35.95;;;19.70;;
72573;SDS011;60603;52.548;13.420;2022-10-31T02:58:43;37.42;;;19.45;;
72573;SDS011;60603;52.548;13.420;2022-10-31T03:07:25;38.10;;;19.90;;
72573;SDS011;60603;52.548;13.420;2022-10-31T03:09:32;38.90;;;19.25;;
72573;SDS011;60603;52.548;13.420;2022-10-31T03:12:07;35.95;;;19.67;;
72573;SDS011;60603;52.548;13.420;2022-10-31T03:14:43;40.63;;;19.92;;
72573;SDS011;60603;52.548;13.420;2022-10-31T03:17:16;31.02;;;18.67;;
72573;SDS011;60603;52.548;13.420;2022-10-31T03:20:04;33.35;;;19.08;;
72573;SDS011;60603;52.548;13.420;2022-10-31T03:22:32;38.80;;;20.00;;
72573;SDS011;60603;52.548;13.420;2022-10-31T03:25:00;38.17;;;17.02;;
72573;SDS011;60603;52.548;13.420;2022-10-31T03:27:27;35.85;;;20.45;;
72573;SDS011;60603;52.548;13.420;2022-10-31T03:29:57;32.83;;;17.75;;
72573;SDS011;60603;52.548;13.420;2022-10-31T03:32:27;38.97;;;18.20;;
72573;SDS011;60603;52.548;13.420;2022-10-31T03:34:57;32.38;;;17.88;;
72573;SDS011;60603;52.548;13.420;2022-10-31T03:37:25;28.05;;;16.90;;
72573;SDS011;60603;52.548;13.420;2022-10-31T03:39:53;30.75;;;16.45;;
72573;SDS011;60603;52.548;13.420;2022-10-31T03:42:25;29.58;;;16.95;;
72573;SDS011;60603;52.548;13.420;2022-10-31T03:44:57;29.13;;;16.10;;
72573;SDS011;60603;52.548;13.420;2022-10-31T03:47:23;24.20;;;13.95;;
72573;SDS011;60603;52.548;13.420;2022-10-31T03:49:50;27.63;;;15.57;;
72573;SDS011;60603;52.548;13.420;2022-10-31T03:54:56;28.42;;;15.50;;
72573;SDS011;60603;52.548;13.420;2022-10-31T03:57:47;30.95;;;15.48;;
72573;SDS011;60603;52.548;13.420;2022-10-31T04:00:21;24.77;;;13.10;;
72573;SDS011;60603;52.548;13.420;2022-10-31T04:02:49;31.95;;;14.95;;
72573;SDS011;60603;52.548;13.420;2022-10-31T04:05:19;24.60;;;13.00;;
72573;SDS011;60603;52.548;13.420;2022-10-31T04:07:45;25.08;;;14.55;;
72573;SDS011;60603;52.548;13.420;2022-10-31T04:10:13;29.80;;;14.98;;
72573;SDS011;60603;52.548;13.420;2022-10-31T04:12:39;26.48;;;14.07;;
72573;SDS011;60603;52.548;13.420;2022-10-31T04:15:05;24.45;;;13.68;;
72573;SDS011;60603;52.548;13.420;2022-10-31T04:17:34;28.52;;;13.48;;
72573;SDS011;60603;52.548;13.420;2022-10-31T04:20:00;22.23;;;12.45;;
72573;SDS011;60603;52.548;13.420;2022-10-31T04:22:26;24.50;;;14.07;;
72573;SDS011;60603;52.548;13.420;2022-10-31T04:24:52;26.92;;;13.68;;
72573;SDS011;60603;52.548;13.420;2022-10-31T04:27:17;26.75;;;13.82;;
72573;SDS011;60603;52.548;13.420;2022-10-31T04:29:43;29.10;;;15.55;;
72573;SDS011;60603;52.548;13.420;2022-10-31T04:32:08;28.05;;;14.52;;
72573;SDS011;60603;52.548;13.420;2022-10-31T04:34:34;24.95;;;14.77;;
72573;SDS011;60603;52.548;13.420;2022-10-31T04:37:00;27.15;;;14.57;;
72573;SDS011;60603;52.548;13.420;2022-10-31T04:39:26;27.52;;;13.85;;
72573;SDS011;60603;52.548;13.420;2022-10-31T04:41:51;23.50;;;13.70;;
72573;SDS011;60603;52.548;13.420;2022-10-31T04:44:17;30.23;;;13.98;;
72573;SDS011;60603;52.548;13.420;2022-10-31T04:46:43;28.65;;;14.68;;
72573;SDS011;60603;52.548;13.420;2022-10-31T04:49:09;24.58;;;15.18;;
72573;SDS011;60603;52.548;13.420;2022-10-31T04:51:34;25.58;;;14.00;;
72573;SDS011;60603;52.548;13.420;2022-10-31T04:54:00;25.42;;;13.65;;
72573;SDS011;60603;52.548;13.420;2022-10-31T04:56:25;24.52;;;14.10;;
72573;SDS011;60603;52.548;13.420;2022-10-31T04:58:51;23.15;;;12.65;;
72573;SDS011;60603;52.548;13.420;2022-10-31T05:01:17;29.60;;;14.68;;
72573;SDS011;60603;52.548;13.420;2022-10-31T05:03:43;25.17;;;14.18;;
72573;SDS011;60603;52.548;13.420;2022-10-31T05:06:08;24.85;;;13.75;;
72573;SDS011;60603;52.548;13.420;2022-10-31T05:08:34;28.85;;;13.68;;
72573;SDS011;60603;52.548;13.420;2022-10-31T05:11:00;25.00;;;14.00;;
72573;SDS011;60603;52.548;13.420;2022-10-31T05:13:29;22.70;;;14.05;;
72573;SDS011;60603;52.548;13.420;2022-10-31T05:15:55;26.92;;;13.38;;
72573;SDS011;60603;52.548;13.420;2022-10-31T05:18:21;24.08;;;13.73;;
72573;SDS011;60603;52.548;13.420;2022-10-31T05:20:46;29.20;;;15.32;;
72573;SDS011;60603;52.548;13.420;2022-10-31T05:23:12;27.42;;;15.50;;
72573;SDS011;60603;52.548;13.420;2022-10-31T05:25:39;26.13;;;14.75;;
72573;SDS011;60603;52.548;13.420;2022-10-31T05:28:05;24.23;;;14.00;;
72573;SDS011;60603;52.548;13.420;2022-10-31T05:30:31;27.40;;;14.20;;
72573;SDS011;60603;52.548;13.420;2022-10-31T05:32:57;30.77;;;14.27;;
72573;SDS011;60603;52.548;13.420;2022-10-31T05:35:25;27.52;;;14.73;;
72573;SDS011;60603;52.548;13.420;2022-10-31T05:37:51;27.65;;;15.23;;
72573;SDS011;60603;52.548;13.420;2022-10-31T05:40:18;24.20;;;14.27;;
72573;SDS011;60603;52.548;13.420;2022-10-31T05:42:44;28.05;;;14.57;;
72573;SDS011;60603;52.548;13.420;2022-10-31T05:45:11;30.70;;;15.88;;
72573;SDS011;60603;52.548;13.420;2022-10-31T05:47:41;28.13;;;14.93;;
72573;SDS011;60603;52.548;13.420;2022-10-31T05:50:07;26.08;;;14.23;;
72573;SDS011;60603;52.548;13.420;2022-10-31T05:52:33;27.13;;;14.90;;
72573;SDS011;60603;52.548;13.420;2022-10-31T05:54:59;24.10;;;13.68;;
72573;SDS011;60603;52.548;13.420;2022-10-31T05:57:25;28.80;;;14.88;;
72573;SDS011;60603;52.548;13.420;2022-10-31T05:59:50;22.33;;;13.38;;
72573;SDS011;60603;52.548;13.420;2022-10-31T06:02:18;24.27;;;15.15;;
72573;SDS011;60603;52.548;13.420;2022-10-31T06:04:44;25.48;;;14.93;;
72573;SDS011;60603;52.548;13.420;2022-10-31T06:07:10;29.17;;;13.88;;
72573;SDS011;60603;52.548;13.420;2022-10-31T06:09:36;26.30;;;14.73;;
72573;SDS011;60603;52.548;13.420;2022-10-31T06:12:01;24.65;;;15.25;;
72573;SDS011;60603;52.548;13.420;2022-10-31T06:14:27;28.38;;;14.15;;
72573;SDS011;60603;52.548;13.420;2022-10-31T06:16:53;32.38;;;14.55;;
72573;SDS011;60603;52.548;13.420;2022-10-31T06:19:20;30.48;;;14.68;;
72573;SDS011;60603;52.548;13.420;2022-10-31T06:21:45;24.90;;;13.68;;
72573;SDS011;60603;52.548;13.420;2022-10-31T06:24:11;28.40;;;14.60;;
72573;SDS011;60603;52.548;13.420;2022-10-31T06:26:37;23.70;;;12.60;;
72573;SDS011;60603;52.548;13.420;2022-10-31T06:29:02;32.35;;;17.05;;
72573;SDS011;60603;52.548;13.420;2022-10-31T06:31:28;25.52;;;13.43;;
72573;SDS011;60603;52.548;13.420;2022-10-31T06:33:53;25.52;;;13.82;;
72573;SDS011;60603;52.548;13.420;2022-10-31T06:36:19;32.25;;;15.35;;
72573;SDS011;60603;52.548;13.420;2022-10-31T06:38:45;28.13;;;13.68;;
72573;SDS011;60603;52.548;13.420;2022-10-31T06:41:10;25.73;;;14.65;;
72573;SDS011;60603;52.548;13.420;2022-10-31T06:43:36;28.50;;;14.15;;
72573;SDS011;60603;52.548;13.420;2022-10-31T06:46:02;24.55;;;14.23;;
72573;SDS011;60603;52.548;13.420;2022-10-31T06:48:29;23.20;;;13.43;;
72573;SDS011;60603;52.548;13.420;2022-10-31T06:50:58;22.88;;;13.45;;
72573;SDS011;60603;52.548;13.420;2022-10-31T06:53:25;23.50;;;13.40;;
72573;SDS011;60603;52.548;13.420;2022-10-31T06:55:51;29.05;;;13.88;;
72573;SDS011;60603;52.548;13.420;2022-10-31T06:58:17;24.77;;;12.27;;
72573;SDS011;60603;52.548;13.420;2022-10-31T07:00:42;23.90;;;13.75;;
72573;SDS011;60603;52.548;13.420;2022-10-31T07:03:12;21.02;;;13.18;;
72573;SDS011;60603;52.548;13.420;2022-10-31T07:05:38;32.80;;;15.18;;
72573;SDS011;60603;52.548;13.420;2022-10-31T07:08:05;23.98;;;14.07;;
72573;SDS011;60603;52.548;13.420;2022-10-31T07:10:34;21.98;;;12.00;;
72573;SDS011;60603;52.548;13.420;2022-10-31T07:13:01;24.55;;;13.35;;
72573;SDS011;60603;52.548;13.420;2022-10-31T07:15:29;25.48;;;13.02;;
72573;SDS011;60603;52.548;13.420;2022-10-31T07:17:59;25.77;;;13.85;;
72573;SDS011;60603;52.548;13.420;2022-10-31T07:20:26;26.60;;;13.30;;
72573;SDS011;60603;52.548;13.420;2022-10-31T07:22:53;22.70;;;12.85;;
72573;SDS011;60603;52.548;13.420;2022-10-31T07:25:18;21.65;;;12.40;;
72573;SDS011;60603;52.548;13.420;2022-10-31T07:27:44;20.35;;;12.52;;
72573;SDS011;60603;52.548;13.420;2022-10-31T07:30:10;26.88;;;13.20;;
72573;SDS011;60603;52.548;13.420;2022-10-31T07:32:44;24.48;;;11.80;;
72573;SDS011;60603;52.548;13.420;2022-10-31T07:35:11;23.27;;;12.68;;
72573;SDS011;60603;52.548;13.420;2022-10-31T07:37:40;23.33;;;12.57;;
72573;SDS011;60603;52.548;13.420;2022-10-31T07:40:06;25.45;;;12.73;;
72573;SDS011;60603;52.548;13.420;2022-10-31T07:42:40;21.77;;;11.50;;
72573;SDS011;60603;52.548;13.420;2022-10-31T07:45:08;20.73;;;12.13;;
72573;SDS011;60603;52.548;13.420;2022-10-31T07:47:45;22.58;;;13.63;;
72573;SDS011;60603;52.548;13.420;2022-10-31T07:50:12;21.35;;;12.38;;
72573;SDS011;60603;52.548;13.420;2022-10-31T07:52:39;23.35;;;12.30;;
72573;SDS011;60603;52.548;13.420;2022-10-31T07:55:05;22.48;;;12.32;;
72573;SDS011;60603;52.548;13.420;2022-10-31T07:57:32;25.08;;;12.68;;
72573;SDS011;60603;52.548;13.420;2022-10-31T07:59:57;24.60;;;13.75;;
72573;SDS011;60603;52.548;13.420;2022-10-31T08:02:23;20.13;;;11.93;;
72573;SDS011;60603;52.548;13.420;2022-10-31T08:04:49;20.75;;;12.65;;
72573;SDS011;60603;52.548;13.420;2022-10-31T08:07:15;23.75;;;13.10;;
72573;SDS011;60603;52.548;13.420;2022-10-31T08:09:41;26.33;;;13.25;;
72573;SDS011;60603;52.548;13.420;2022-10-31T08:12:07;26.38;;;13.10;;
72573;SDS011;60603;52.548;13.420;2022-10-31T08:14:33;30.67;;;14.43;;
72573;SDS011;60603;52.548;13.420;2022-10-31T08:16:58;26.98;;;14.38;;
72573;SDS011;60603;52.548;13.420;2022-10-31T08:19:24;27.27;;;15.43;;
72573;SDS011;60603;52.548;13.420;2022-10-31T08:21:50;24.95;;;13.57;;
72573;SDS011;60603;52.548;13.420;2022-10-31T08:24:17;26.52;;;15.38;;
72573;SDS011;60603;52.548;13.420;2022-10-31T08:26:43;26.83;;;14.10;;
72573;SDS011;60603;52.548;13.420;2022-10-31T08:29:09;26.30;;;14.23;;
72573;SDS011;60603;52.548;13.420;2022-10-31T08:31:34;26.80;;;13.48;;
72573;SDS011;60603;52.548;13.420;2022-10-31T08:34:00;26.67;;;14.18;;
72573;SDS011;60603;52.548;13.420;2022-10-31T08:36:26;26.75;;;15.02;;
72573;SDS011;60603;52.548;13.420;2022-10-31T08:38:52;24.88;;;13.02;;
72573;SDS011;60603;52.548;13.420;2022-10-31T08:41:18;25.27;;;14.45;;
72573;SDS011;60603;52.548;13.420;2022-10-31T08:43:44;27.05;;;13.65;;
72573;SDS011;60603;52.548;13.420;2022-10-31T08:46:10;27.98;;;14.65;;
72573;SDS011;60603;52.548;13.420;2022-10-31T08:48:35;28.40;;;15.23;;
72573;SDS011;60603;52.548;13.420;2022-10-31T08:51:01;24.63;;;14.00;;
72573;SDS011;60603;52.548;13.420;2022-10-31T08:53:27;27.55;;;14.05;;
72573;SDS011;60603;52.548;13.420;2022-10-31T08:55:56;24.55;;;14.75;;
72573;SDS011;60603;52.548;13.420;2022-10-31T08:58:22;24.67;;;14.25;;
72573;SDS011;60603;52.548;13.420;2022-10-31T09:00:50;28.05;;;13.77;;
72573;SDS011;60603;52.548;13.420;2022-10-31T09:03:18;27.52;;;14.18;;
72573;SDS011;60603;52.548;13.420;2022-10-31T09:05:45;27.33;;;14.70;;
72573;SDS011;60603;52.548;13.420;2022-10-31T09:08:11;33.75;;;17.10;;
72573;SDS011;60603;52.548;13.420;2022-10-31T09:10:38;27.30;;;15.27;;
72573;SDS011;60603;52.548;13.420;2022-10-31T09:13:08;31.40;;;16.23;;
72573;SDS011;60603;52.548;13.420;2022-10-31T09:15:37;28.52;;;15.48;;
72573;SDS011;60603;52.548;13.420;2022-10-31T09:18:04;30.23;;;16.92;;
72573;SDS011;60603;52.548;13.420;2022-10-31T09:20:30;27.45;;;16.55;;
72573;SDS011;60603;52.548;13.420;2022-10-31T09:22:58;28.45;;;15.60;;
72573;SDS011;60603;52.548;13.420;2022-10-31T09:25:25;30.77;;;16.60;;
72573;SDS011;60603;52.548;13.420;2022-10-31T09:27:55;29.10;;;15.85;;
72573;SDS011;60603;52.548;13.420;2022-10-31T09:30:24;31.88;;;18.00;;
72573;SDS011;60603;52.548;13.420;2022-10-31T09:32:56;32.22;;;16.55;;
72573;SDS011;60603;52.548;13.420;2022-10-31T09:35:26;31.20;;;16.48;;
72573;SDS011;60603;52.548;13.420;2022-10-31T09:37:59;33.38;;;16.80;;
72573;SDS011;60603;52.548;13.420;2022-10-31T09:40:38;31.33;;;16.50;;
72573;SDS011;60603;52.548;13.420;2022-10-31T09:46:07;31.77;;;17.10;;
72573;SDS011;60603;52.548;13.420;2022-10-31T09:48:44;30.52;;;17.30;;
72573;SDS011;60603;52.548;13.420;2022-10-31T09:51:23;31.33;;;17.48;;
72573;SDS011;60603;52.548;13.420;2022-10-31T09:54:08;37.67;;;18.02;;
72573;SDS011;60603;52.548;13.420;2022-10-31T09:56:37;31.20;;;16.90;;
72573;SDS011;60603;52.548;13.420;2022-10-31T09:59:04;37.50;;;17.67;;
72573;SDS011;60603;52.548;13.420;2022-10-31T10:07:16;33.17;;;17.27;;
72573;SDS011;60603;52.548;13.420;2022-10-31T10:09:44;32.35;;;16.70;;
72573;SDS011;60603;52.548;13.420;2022-10-31T10:20:18;30.85;;;15.80;;
72573;SDS011;60603;52.548;13.420;2022-10-31T10:25:39;32.92;;;17.40;;
72573;SDS011;60603;52.548;13.420;2022-10-31T10:30:44;36.40;;;17.30;;
72573;SDS011;60603;52.548;13.420;2022-10-31T10:33:19;34.22;;;16.42;;
72573;SDS011;60603;52.548;13.420;2022-10-31T10:35:55;32.80;;;16.40;;
72573;SDS011;60603;52.548;13.420;2022-10-31T10:40:54;29.02;;;15.75;;
72573;SDS011;60603;52.548;13.420;2022-10-31T10:43:24;32.22;;;16.65;;
72573;SDS011;60603;52.548;13.420;2022-10-31T10:51:44;32.83;;;17.80;;
72573;SDS011;60603;52.548;13.420;2022-10-31T10:59:46;37.28;;;17.95;;
72573;SDS011;60603;52.548;13.420;2022-10-31T11:02:16;29.88;;;16.23;;
72573;SDS011;60603;52.548;13.420;2022-10-31T11:04:43;30.05;;;17.48;;
72573;SDS011;60603;52.548;13.420;2022-10-31T11:07:11;33.70;;;18.27;;
72573;SDS011;60603;52.548;13.420;2022-10-31T11:09:37;35.00;;;19.50;;
72573;SDS011;60603;52.548;13.420;2022-10-31T11:14:56;31.98;;;19.30;;
72573;SDS011;60603;52.548;13.420;2022-10-31T11:17:34;31.48;;;17.55;;
72573;SDS011;60603;52.548;13.420;2022-10-31T11:20:23;32.20;;;17.52;;
72573;SDS011;60603;52.548;13.420;2022-10-31T11:23:18;35.05;;;18.60;;
72573;SDS011;60603;52.548;13.420;2022-10-31T11:28:27;32.85;;;18.23;;
72573;SDS011;60603;52.548;13.420;2022-10-31T11:31:05;31.40;;;17.17;;
72573;SDS011;60603;52.548;13.420;2022-10-31T11:33:33;32.15;;;17.02;;
72573;SDS011;60603;52.548;13.420;2022-10-31T11:36:01;32.33;;;18.20;;
72573;SDS011;60603;52.548;13.420;2022-10-31T11:38:35;33.28;;;17.00;;
72573;SDS011;60603;52.548;13.420;2022-10-31T11:43:36;36.17;;;18.63;;
72573;SDS011;60603;52.548;13.420;2022-10-31T11:46:09;39.08;;;18.45;;
72573;SDS011;60603;52.548;13.420;2022-10-31T11:48:35;34.70;;;18.80;;
72573;SDS011;60603;52.548;13.420;2022-10-31T11:51:02;33.03;;;19.13;;
72573;SDS011;60603;52.548;13.420;2022-10-31T11:53:30;34.97;;;19.70;;
72573;SDS011;60603;52.548;13.420;2022-10-31T11:56:13;36.10;;;19.40;;
72573;SDS011;60603;52.548;13.420;2022-10-31T11:58:39;37.78;;;19.33;;
72573;SDS011;60603;52.548;13.420;2022-10-31T12:01:05;32.05;;;18.60;;
72573;SDS011;60603;52.548;13.420;2022-10-31T12:03:53;32.63;;;18.05;;
72573;SDS011;60603;52.548;13.420;2022-10-31T12:06:34;34.58;;;18.60;;
72573;SDS011;60603;52.548;13.420;2022-10-31T12:09:02;34.47;;;18.58;;
72573;SDS011;60603;52.548;13.420;2022-10-31T12:14:05;33.30;;;19.00;;
72573;SDS011;60603;52.548;13.420;2022-10-31T12:17:00;31.73;;;18.20;;
72573;SDS011;60603;52.548;13.420;2022-10-31T12:25:28;34.40;;;19.13;;
72573;SDS011;60603;52.548;13.420;2022-10-31T12:31:31;38.53;;;19.95;;
72573;SDS011;60603;52.548;13.420;2022-10-31T12:36:38;37.13;;;18.38;;
72573;SDS011;60603;52.548;13.420;2022-10-31T12:47:32;33.63;;;18.40;;
72573;SDS011;60603;52.548;13.420;2022-10-31T12:53:18;32.40;;;18.67;;
72573;SDS011;60603;52.548;13.420;2022-10-31T12:58:43;35.58;;;18.45;;
72573;SDS011;60603;52.548;13.420;2022-10-31T13:01:13;33.08;;;17.92;;
72573;SDS011;60603;52.548;13.420;2022-10-31T13:06:12;35.20;;;18.65;;
72573;SDS011;60603;52.548;13.420;2022-10-31T13:08:47;34.88;;;18.52;;
72573;SDS011;60603;52.548;13.420;2022-10-31T13:11:18;38.13;;;18.73;;
72573;SDS011;60603;52.548;13.420;2022-10-31T13:13:53;35.85;;;18.58;;
72573;SDS011;60603;52.548;13.420;2022-10-31T13:16:24;40.47;;;19.30;;
72573;SDS011;60603;52.548;13.420;2022-10-31T13:18:54;39.05;;;18.95;;
72573;SDS011;60603;52.548;13.420;2022-10-31T13:21:25;34.30;;;19.48;;
72573;SDS011;60603;52.548;13.420;2022-10-31T13:23:52;37.97;;;19.88;;
72573;SDS011;60603;52.548;13.420;2022-10-31T13:26:22;39.00;;;18.75;;
72573;SDS011;60603;52.548;13.420;2022-10-31T13:28:56;36.67;;;19.73;;
72573;SDS011;60603;52.548;13.420;2022-10-31T13:31:26;37.20;;;20.65;;
72573;SDS011;60603;52.548;13.420;2022-10-31T13:33:53;39.08;;;20.15;;
72573;SDS011;60603;52.548;13.420;2022-10-31T13:42:15;40.40;;;20.17;;
72573;SDS011;60603;52.548;13.420;2022-10-31T13:44:45;32.17;;;18.83;;
72573;SDS011;60603;52.548;13.420;2022-10-31T13:47:27;35.53;;;19.13;;
72573;SDS011;60603;52.548;13.420;2022-10-31T13:50:18;34.58;;;19.75;;
72573;SDS011;60603;52.548;13.420;2022-10-31T13:52:44;34.53;;;18.77;;
72573;SDS011;60603;52.548;13.420;2022-10-31T13:58:19;34.28;;;18.50;;
72573;SDS011;60603;52.548;13.420;2022-10-31T14:00:56;33.10;;;17.80;;
72573;SDS011;60603;52.548;13.420;2022-10-31T14:06:20;37.38;;;18.38;;
72573;SDS011;60603;52.548;13.420;2022-10-31T14:08:48;32.65;;;18.60;;
72573;SDS011;60603;52.548;13.420;2022-10-31T14:11:21;37.72;;;20.50;;
72573;SDS011;60603;52.548;13.420;2022-10-31T14:13:49;36.28;;;19.00;;
72573;SDS011;60603;52.548;13.420;2022-10-31T14:16:17;37.90;;;19.58;;
72573;SDS011;60603;52.548;13.420;2022-10-31T14:18:48;32.28;;;18.42;;
72573;SDS011;60603;52.548;13.420;2022-10-31T14:23:49;38.45;;;21.23;;
72573;SDS011;60603;52.548;13.420;2022-10-31T14:26:19;39.67;;;21.95;;
72573;SDS011;60603;52.548;13.420;2022-10-31T14:28:46;36.83;;;20.65;;
72573;SDS011;60603;52.548;13.420;2022-10-31T14:31:36;47.03;;;23.60;;
72573;SDS011;60603;52.548;13.420;2022-10-31T14:34:04;45.47;;;20.80;;
72573;SDS011;60603;52.548;13.420;2022-10-31T14:42:50;47.13;;;23.27;;
72573;SDS011;60603;52.548;13.420;2022-10-31T14:48:03;43.75;;;23.90;;
72573;SDS011;60603;52.548;13.420;2022-10-31T14:50:58;48.15;;;23.70;;
72573;SDS011;60603;52.548;13.420;2022-10-31T14:53:26;53.92;;;25.23;;
72573;SDS011;60603;52.548;13.420;2022-10-31T14:55:57;46.67;;;24.25;;
72573;SDS011;60603;52.548;13.420;2022-10-31T14:58:25;56.05;;;26.52;;
72573;SDS011;60603;52.548;13.420;2022-10-31T15:00:55;50.10;;;25.30;;
72573;SDS011;60603;52.548;13.420;2022-10-31T15:05:57;54.35;;;27.95;;
72573;SDS011;60603;52.548;13.420;2022-10-31T15:08:38;51.55;;;27.13;;
72573;SDS011;60603;52.548;13.420;2022-10-31T15:13:42;53.17;;;25.27;;
72573;SDS011;60603;52.548;13.420;2022-10-31T15:16:08;55.42;;;27.27;;
72573;SDS011;60603;52.548;13.420;2022-10-31T15:18:36;56.03;;;27.15;;
72573;SDS011;60603;52.548;13.420;2022-10-31T15:21:10;51.88;;;26.42;;
72573;SDS011;60603;52.548;13.420;2022-10-31T15:23:35;57.53;;;29.02;;
72573;SDS011;60603;52.548;13.420;2022-10-31T15:26:02;60.25;;;29.40;;
72573;SDS011;60603;52.548;13.420;2022-10-31T15:28:29;63.83;;;28.92;;
72573;SDS011;60603;52.548;13.420;2022-10-31T15:30:57;61.67;;;30.15;;
72573;SDS011;60603;52.548;13.420;2022-10-31T15:33:27;61.92;;;30.40;;
72573;SDS011;60603;52.548;13.420;2022-10-31T15:35:58;63.67;;;30.00;;
72573;SDS011;60603;52.548;13.420;2022-10-31T15:38:25;64.57;;;30.02;;
72573;SDS011;60603;52.548;13.420;2022-10-31T15:40:56;63.05;;;29.80;;
72573;SDS011;60603;52.548;13.420;2022-10-31T15:43:22;63.17;;;29.58;;
72573;SDS011;60603;52.548;13.420;2022-10-31T15:45:48;63.95;;;29.77;;
72573;SDS011;60603;52.548;13.420;2022-10-31T15:48:16;67.07;;;32.33;;
72573;SDS011;60603;52.548;13.420;2022-10-31T15:50:47;69.55;;;31.75;;
72573;SDS011;60603;52.548;13.420;2022-10-31T15:53:37;66.18;;;30.50;;
72573;SDS011;60603;52.548;13.420;2022-10-31T15:56:06;67.35;;;30.63;;
72573;SDS011;60603;52.548;13.420;2022-10-31T15:58:39;63.35;;;30.30;;
72573;SDS011;60603;52.548;13.420;2022-10-31T16:06:33;73.85;;;31.50;;
72573;SDS011;60603;52.548;13.420;2022-10-31T16:08:59;70.75;;;34.13;;
72573;SDS011;60603;52.548;13.420;2022-10-31T16:11:38;81.38;;;34.42;;
72573;SDS011;60603;52.548;13.420;2022-10-31T16:14:05;81.07;;;34.92;;
72573;SDS011;60603;52.548;13.420;2022-10-31T16:16:33;76.82;;;34.28;;
72573;SDS011;60603;52.548;13.420;2022-10-31T16:19:11;73.38;;;34.35;;
72573;SDS011;60603;52.548;13.420;2022-10-31T16:21:43;82.10;;;35.55;;
72573;SDS011;60603;52.548;13.420;2022-10-31T16:26:51;82.55;;;35.25;;
72573;SDS011;60603;52.548;13.420;2022-10-31T16:29:24;83.93;;;34.85;;
72573;SDS011;60603;52.548;13.420;2022-10-31T16:32:27;88.55;;;36.55;;
72573;SDS011;60603;52.548;13.420;2022-10-31T16:37:37;80.22;;;35.45;;
72573;SDS011;60603;52.548;13.420;2022-10-31T16:40:03;72.95;;;32.90;;
72573;SDS011;60603;52.548;13.420;2022-10-31T16:42:29;88.70;;;38.47;;